Time;durP1;ratioP1;P1;durP2;ratioP2;P2;SDS_P1;SDS_P2;PMS_P1;PMS_P2;Temp;Humidity;BMP_temperature;BMP_pressure;BME280_temperature;BME280_humidity;BME280_pressure;Samples;Min_cycle;Max_cycle;Signal;HPM_P1;HPM_P2
2022/09/14 00:00:44;;;;;;;7.55;3.92;;;;;;;12.83;69.38;99221.75;4983785;28;20025;-90
2022/09/14 00:03:10;;;;;;;6.40;3.85;;;;;;;12.93;69.45;99241.34;4986086;28;20484;-90
2022/09/14 00:05:35;;;;;;;5.93;4.00;;;;;;;12.88;69.50;99238.69;4980152;28;20476;-91
2022/09/14 00:08:01;;;;;;;9.60;3.78;;;;;;;12.83;69.50;99229.84;5000794;28;20052;-90
2022/09/14 00:10:27;;;;;;;8.93;4.50;;;;;;;12.98;68.82;99231.56;4986638;28;20029;-91
2022/09/14 00:12:52;;;;;;;8.60;4.18;;;;;;;13.00;68.71;99223.97;4993466;28;20045;-90
2022/09/14 00:15:17;;;;;;;7.75;4.07;;;;;;;13.03;68.98;99239.59;4983598;28;20092;-90
2022/09/14 00:17:43;;;;;;;7.95;3.60;;;;;;;13.00;68.97;99221.28;4963188;28;20042;-91
2022/09/14 00:20:09;;;;;;;6.70;3.50;;;;;;;13.05;69.24;99232.84;4963712;28;20061;-90
2022/09/14 00:22:34;;;;;;;7.82;4.13;;;;;;;12.99;69.64;99223.19;4993858;28;20063;-90
2022/09/14 00:24:59;;;;;;;8.32;4.43;;;;;;;13.01;69.41;99221.00;5003420;28;20464;-90
2022/09/14 00:27:25;;;;;;;6.03;3.90;;;;;;;12.99;69.85;99236.69;5002723;28;20561;-90
2022/09/14 00:29:50;;;;;;;7.70;4.90;;;;;;;12.86;69.47;99223.84;5002202;28;20083;-90
2022/09/14 00:32:16;;;;;;;5.28;4.28;;;;;;;12.86;69.46;99224.66;4994742;28;20027;-90
2022/09/14 00:34:41;;;;;;;7.88;3.75;;;;;;;12.86;69.47;99223.84;4963480;28;20409;-90
2022/09/14 00:37:07;;;;;;;5.00;3.60;;;;;;;13.03;70.00;99251.25;4969541;28;20036;-91
2022/09/14 00:39:32;;;;;;;8.30;4.18;;;;;;;12.86;69.98;99219.25;5002655;28;20037;-90
2022/09/14 00:41:58;;;;;;;6.93;4.60;;;;;;;12.84;70.29;99229.53;5000397;28;20032;-90
2022/09/14 00:44:23;;;;;;;6.25;4.60;;;;;;;12.92;70.77;99257.84;4982465;28;20099;-90
2022/09/14 00:46:53;;;;;;;6.63;4.25;;;;;;;12.77;70.40;99234.50;4999027;28;20030;-91
2022/09/14 00:49:21;;;;;;;6.07;4.15;;;;;;;12.80;70.78;99249.31;4986441;28;20029;-90
2022/09/14 00:52:10;;;;;;;6.45;4.28;;;;;;;12.68;70.97;99253.22;5036957;28;20040;-90
2022/09/14 00:54:40;;;;;;;9.75;4.28;;;;;;;12.52;70.94;99230.94;5015924;28;20057;-90
2022/09/14 00:57:06;;;;;;;9.45;4.30;;;;;;;12.66;70.81;99260.00;4987003;28;20060;-90
2022/09/14 00:59:34;;;;;;;5.15;3.78;;;;;;;12.56;70.39;99223.09;5002937;28;20075;-90
2022/09/14 01:01:59;;;;;;;5.38;3.63;;;;;;;12.57;70.35;99219.28;4986516;28;20464;-90
2022/09/14 01:04:25;;;;;;;9.68;4.32;;;;;;;12.51;70.39;99229.34;4986327;28;20029;-91
2022/09/14 01:07:11;;;;;;;7.32;3.95;;;;;;;12.73;70.56;99242.34;5001588;28;20022;-90
2022/09/14 01:09:52;;;;;;;7.15;3.97;;;;;;;12.72;70.91;99245.34;4999066;28;20036;-91
2022/09/14 01:12:24;;;;;;;8.52;3.65;;;;;;;12.70;70.70;99252.91;4984418;28;20036;-91
2022/09/14 01:14:52;;;;;;;;;;;;;;;12.71;70.40;99251.84;4982866;28;20103;-91
2022/09/14 01:17:32;;;;;;;4.82;2.90;;;;;;;12.53;70.13;99235.28;4987451;28;19924;-91
2022/09/14 01:20:06;;;;;;;4.43;3.28;;;;;;;12.68;70.31;99250.53;5001982;28;20091;-91
2022/09/14 01:22:43;;;;;;;6.15;3.58;;;;;;;12.59;70.96;99227.91;5007640;28;20022;-91
2022/09/14 01:25:20;;;;;;;6.38;3.53;;;;;;;12.67;70.48;99251.59;5011347;28;20030;-91
2022/09/14 01:27:45;;;;;;;4.45;3.72;;;;;;;12.49;70.66;99233.41;5006056;28;20152;-92
2022/09/14 01:30:12;;;;;;;10.50;3.72;;;;;;;12.38;71.47;99218.41;5001873;28;20048;-91
2022/09/14 01:33:02;;;;;;;7.88;3.90;;;;;;;12.38;71.29;99237.31;4985461;28;20025;-92
2022/09/14 01:35:34;;;;;;;4.30;3.22;;;;;;;12.38;71.05;99234.59;4987030;28;20233;-92
2022/09/14 01:38:33;;;;;;;5.47;3.45;;;;;;;12.20;71.43;99223.41;4972056;28;20089;-92
2022/09/14 01:40:59;;;;;;;6.25;3.38;;;;;;;12.16;71.70;99222.38;4981963;28;20026;-91
2022/09/14 01:43:41;;;;;;;8.02;4.05;;;;;;;12.06;72.00;99220.56;4965890;28;20022;-91
2022/09/14 01:46:21;;;;;;;7.95;3.78;;;;;;;12.12;72.08;99232.13;4967575;28;20512;-91
2022/09/14 01:48:50;;;;;;;4.80;3.22;;;;;;;12.07;72.15;99221.34;4982514;28;20040;-91
2022/09/14 01:51:21;;;;;;;4.95;3.38;;;;;;;12.17;71.58;99237.47;4985138;28;20116;-92
2022/09/14 01:53:49;;;;;;;4.32;2.83;;;;;;;12.21;70.89;99225.03;4984861;28;20033;-92
2022/09/14 01:56:32;;;;;;;4.22;2.90;;;;;;;12.23;70.89;99222.84;4981524;28;20472;-92
2022/09/14 01:59:27;;;;;;;8.55;3.25;;;;;;;12.44;70.67;99228.06;4997906;28;20034;-91
2022/09/14 02:01:56;;;;;;;3.92;2.97;;;;;;;12.49;70.19;99219.91;4967723;28;20036;-91
2022/09/14 02:04:31;;;;;;;4.43;2.80;;;;;;;12.61;69.08;99217.63;4984890;28;20113;-91
2022/09/14 02:06:56;;;;;;;3.42;2.67;;;;;;;12.94;67.37;99244.84;4983485;28;20021;-91
2022/09/14 02:09:25;;;;;;;3.38;2.45;;;;;;;12.89;66.55;99226.78;4981129;28;20056;-91
2022/09/14 02:11:51;;;;;;;7.80;2.72;;;;;;;12.64;68.36;99224.38;4982352;28;20435;-91
2022/09/14 02:14:16;;;;;;;3.67;2.72;;;;;;;12.64;68.20;99243.28;4984096;28;20125;-91
2022/09/14 02:16:44;;;;;;;7.28;3.30;;;;;;;12.51;69.18;99228.53;4984437;28;20036;-91
2022/09/14 02:19:12;;;;;;;4.43;2.75;;;;;;;12.46;69.97;99228.59;4982329;28;20516;-91
2022/09/14 02:21:37;;;;;;;6.38;2.75;;;;;;;12.39;69.92;99228.09;4965503;28;20455;-91
2022/09/14 02:24:03;;;;;;;6.07;3.15;;;;;;;12.32;70.35;99228.44;4983187;28;20028;-91
2022/09/14 02:26:28;;;;;;;5.53;3.28;;;;;;;12.27;70.98;99226.59;4999391;28;20025;-91
2022/09/14 02:28:55;;;;;;;4.93;2.92;;;;;;;12.16;71.13;99222.38;4979552;28;20065;-91
2022/09/14 02:31:26;;;;;;;4.07;3.20;;;;;;;12.24;71.36;99235.28;4961503;28;20416;-91
2022/09/14 02:34:07;;;;;;;10.77;3.25;;;;;;;12.09;71.94;99235.38;5029206;28;20025;-91
2022/09/14 02:37:08;;;;;;;9.45;2.78;;;;;;;12.10;71.65;99240.50;5000945;28;20087;-91
2022/09/14 02:39:55;;;;;;;6.03;3.30;;;;;;;12.02;71.74;99233.00;4969453;28;20097;-91
2022/09/14 02:42:33;;;;;;;6.78;3.03;;;;;;;12.05;71.92;99245.13;4981407;28;20026;-91
2022/09/14 02:45:05;;;;;;;4.03;3.00;;;;;;;11.97;72.42;99245.72;4977202;28;20026;-91
2022/09/14 02:47:44;;;;;;;4.68;3.22;;;;;;;11.86;72.69;99226.06;4989359;28;20035;-91
2022/09/14 02:50:30;;;;;;;4.32;3.15;;;;;;;11.98;72.32;99242.75;4999845;28;20029;-91
2022/09/14 02:53:08;;;;;;;5.07;2.55;;;;;;;11.89;72.12;99233.63;5024451;28;20109;-91
2022/09/14 02:55:35;;;;;;;7.50;3.10;;;;;;;11.77;72.11;99225.88;5014361;28;20029;-91
2022/09/14 02:58:05;;;;;;;10.43;2.72;;;;;;;11.73;72.75;99216.72;4974882;28;20041;-91
2022/09/14 03:00:33;;;;;;;5.10;3.30;;;;;;;11.73;72.41;99222.09;4984210;28;20036;-91
2022/09/14 03:03:00;;;;;;;6.10;2.90;;;;;;;11.55;72.79;99207.38;4974712;28;20061;-91
2022/09/14 03:05:26;;;;;;;5.78;3.20;;;;;;;11.57;72.63;99207.91;4996265;28;20026;-93
2022/09/14 03:07:51;;;;;;;7.97;3.75;;;;;;;11.64;72.94;99215.69;4964172;28;20100;-93
2022/09/14 03:10:16;;;;;;;5.47;3.05;;;;;;;11.63;72.68;99211.38;4964375;28;20140;-93
2022/09/14 03:12:42;;;;;;;8.50;3.60;;;;;;;11.64;72.42;99215.69;4987831;28;20029;-92
2022/09/14 03:15:08;;;;;;;11.82;4.18;;;;;;;11.59;72.80;99197.66;5000375;28;20025;-92
2022/09/14 03:17:34;;;;;;;4.93;3.75;;;;;;;11.65;72.61;99211.91;4973619;28;20121;-92
2022/09/14 03:19:59;;;;;;;6.20;3.35;;;;;;;11.70;73.13;99219.97;4976696;28;20050;-92
2022/09/14 03:22:25;;;;;;;5.55;3.50;;;;;;;11.58;72.58;99206.84;4971250;28;20029;-92
2022/09/14 03:24:50;;;;;;;8.07;3.65;;;;;;;11.71;72.18;99219.69;4999652;28;20021;-92
2022/09/14 03:27:16;;;;;;;8.35;3.08;;;;;;;11.66;72.10;99214.34;4982644;28;20458;-92
2022/09/14 03:29:41;;;;;;;5.95;3.47;;;;;;;11.59;72.78;99207.63;4983281;28;20472;-92
2022/09/14 03:32:09;;;;;;;6.00;3.13;;;;;;;11.63;72.54;99222.97;4999866;28;20021;-92
2022/09/14 03:34:35;;;;;;;3.97;2.83;;;;;;;11.71;72.19;99227.78;5000185;28;20407;-92
2022/09/14 03:37:01;;;;;;;7.00;3.30;;;;;;;11.48;72.94;99206.91;4999262;28;20049;-92
2022/09/14 03:39:27;;;;;;;7.20;3.63;;;;;;;11.42;72.90;99208.00;4999432;28;20129;-92
2022/09/14 03:41:52;;;;;;;3.95;2.88;;;;;;;11.41;72.94;99212.56;4999141;28;20388;-92
2022/09/14 03:44:18;;;;;;;6.15;3.05;;;;;;;11.39;73.74;99222.03;4999428;28;20032;-92
2022/09/14 03:46:43;;;;;;;11.48;3.50;;;;;;;11.29;73.61;99214.81;4999550;28;20032;-91
2022/09/14 03:49:09;;;;;;;5.55;3.13;;;;;;;11.40;73.26;99237.94;4999749;28;20544;-91
2022/09/14 03:51:34;;;;;;;5.78;3.33;;;;;;;11.28;72.90;99203.19;4983161;28;20032;-91
2022/09/14 03:54:00;;;;;;;5.45;3.15;;;;;;;11.38;73.49;99231.22;5000120;28;20033;-91
2022/09/14 03:56:26;;;;;;;6.57;3.05;;;;;;;11.21;73.73;99210.78;4999685;28;20108;-91
2022/09/14 03:58:51;;;;;;;5.95;3.35;;;;;;;11.36;73.67;99230.69;4999445;28;20471;-91
2022/09/14 04:01:18;;;;;;;6.03;2.55;;;;;;;11.31;73.22;99232.31;4998420;28;20033;-91
2022/09/14 04:03:44;;;;;;;5.57;3.53;;;;;;;11.31;73.51;99242.28;4983740;28;20032;-91
2022/09/14 04:06:10;;;;;;;11.88;3.08;;;;;;;11.27;73.14;99227.75;5000226;28;20030;-91
2022/09/14 04:08:38;;;;;;;15.35;3.65;;;;;;;11.47;72.79;99249.19;4968637;28;20030;-92
2022/09/14 04:11:12;;;;;;;5.53;3.00;;;;;;;11.60;72.60;99249.69;4924638;28;20137;-92
2022/09/14 04:13:37;;;;;;;6.10;3.03;;;;;;;11.49;73.46;99238.94;4919301;29;20079;-92
2022/09/14 04:16:03;;;;;;;6.47;3.58;;;;;;;11.71;72.96;99262.84;4924487;28;20117;-92
2022/09/14 04:18:28;;;;;;;8.02;3.15;;;;;;;11.56;72.51;99251.31;4911487;29;20027;-93
2022/09/14 04:20:57;;;;;;;4.43;3.08;;;;;;;11.50;72.67;99250.56;4923321;28;20043;-93
2022/09/14 04:23:24;;;;;;;5.88;3.13;;;;;;;11.47;72.73;99240.31;4914205;29;20086;-92
2022/09/14 04:25:50;;;;;;;5.38;3.20;;;;;;;11.42;73.10;99235.75;4919409;29;20099;-92
2022/09/14 04:28:15;;;;;;;6.15;3.67;;;;;;;11.51;73.19;99250.25;4902842;29;20028;-92
2022/09/14 04:30:41;;;;;;;5.95;3.75;;;;;;;11.53;72.83;99258.06;4934385;29;20036;-90
2022/09/14 04:33:07;;;;;;;6.95;3.45;;;;;;;11.46;72.74;99247.59;4921224;29;20120;-93
2022/09/14 04:35:32;;;;;;;4.10;2.85;;;;;;;11.50;72.67;99247.88;4921104;29;20027;-92
2022/09/14 04:37:58;;;;;;;5.68;3.33;;;;;;;11.50;72.55;99250.56;4921891;29;20031;-92
2022/09/14 04:40:23;;;;;;;8.63;4.10;;;;;;;11.53;72.54;99255.38;4926693;28;20031;-92
2022/09/14 04:42:49;;;;;;;7.25;3.53;;;;;;;11.72;72.69;99271.72;4976543;28;20036;-96
2022/09/14 04:45:14;;;;;;;7.82;3.22;;;;;;;11.72;72.67;99272.56;5018167;28;20021;-94
2022/09/14 04:47:40;;;;;;;11.38;3.35;;;;;;;11.67;72.58;99250.19;5001658;28;20022;-95
2022/09/14 04:50:06;;;;;;;16.67;3.90;;;;;;;11.68;71.86;99251.78;4988154;28;20102;-96
2022/09/14 04:52:34;;;;;;;6.18;3.67;;;;;;;11.85;71.17;99259.50;5005844;28;20032;-94
2022/09/14 04:55:10;;;;;;;7.43;3.53;;;;;;;11.96;71.14;99265.69;5005856;28;20049;-95
2022/09/14 04:57:36;;;;;;;7.18;4.35;;;;;;;11.99;70.77;99254.34;5025586;28;20483;-95
2022/09/14 05:00:04;;;;;;;8.70;4.35;;;;;;;12.11;70.30;99257.47;5009142;28;20025;-94
2022/09/14 05:02:30;;;;;;;6.57;4.30;;;;;;;12.23;69.91;99254.44;5024099;28;20021;-95
2022/09/14 05:05:08;;;;;;;6.25;3.83;;;;;;;12.26;68.63;99234.97;4989830;28;20052;-96
2022/09/14 05:07:34;;;;;;;15.20;4.60;;;;;;;12.46;67.99;99253.69;4990988;28;20041;-95
2022/09/14 05:10:03;;;;;;;8.50;5.20;;;;;;;12.60;67.88;99253.84;5005823;28;20060;-94
2022/09/14 05:12:29;;;;;;;6.07;4.32;;;;;;;12.77;67.32;99266.13;4988565;28;20037;-94
2022/09/14 05:15:18;;;;;;;9.77;5.47;;;;;;;12.76;67.49;99250.97;4991477;28;20028;-96
2022/09/14 05:17:44;;;;;;;7.05;4.43;;;;;;;12.86;65.51;99240.88;5028328;28;20041;-94
2022/09/14 05:20:09;;;;;;;7.85;4.53;;;;;;;13.21;64.14;99265.91;5007032;28;20050;-93
2022/09/14 05:23:29;;;;;;;9.77;5.32;;;;;;;13.10;65.57;99267.91;5025862;28;20022;-96
2022/09/14 05:26:10;;;;;;;10.45;5.38;;;;;;;13.11;65.56;99260.59;5023918;28;20068;-95
2022/09/14 05:29:01;;;;;;;9.18;5.57;;;;;;;13.13;64.94;99251.09;5005931;28;20028;-95
2022/09/14 05:31:33;;;;;;;13.65;7.45;;;;;;;13.23;64.39;99254.78;5042204;28;20025;-95
2022/09/14 05:34:12;;;;;;;15.07;6.35;;;;;;;13.30;64.92;99269.63;5013138;28;20038;-96
2022/09/14 05:36:42;;;;;;;11.80;5.10;;;;;;;13.33;64.63;99268.22;5009392;28;20049;-96
2022/09/14 05:48:15;;;;;;;9.70;3.42;;;;;;;14.09;62.05;99292.63;5028168;28;20049;-94
2022/09/14 05:53:54;;;;;;;8.13;4.15;;;;;;;14.08;62.62;99282.91;4987072;28;20145;-96
2022/09/14 05:56:20;;;;;;;12.73;4.32;;;;;;;14.31;62.36;99306.38;4935032;28;20507;-88
2022/09/14 05:58:46;;;;;;;6.20;4.30;;;;;;;14.23;61.78;99284.56;4956714;28;20030;-91
2022/09/14 06:01:18;;;;;;;8.38;3.75;;;;;;;14.39;60.79;99299.50;4927868;28;20023;-94
2022/09/14 06:03:46;;;;;;;;;;;;;;;14.47;60.65;99316.97;4931386;28;20037;-94
2022/09/14 06:06:13;;;;;;;6.38;3.25;;;;;;;14.53;61.50;99307.69;4947471;28;19914;-92
2022/09/14 06:08:39;;;;;;;6.55;3.15;;;;;;;14.53;60.57;99289.50;4932283;28;20058;-93
2022/09/14 06:11:09;;;;;;;5.00;2.95;;;;;;;14.61;60.85;99287.22;4932750;28;20038;-93
2022/09/14 06:14:45;;;;;;;7.93;4.53;;;;;;;14.78;60.80;99292.13;4932451;28;20047;-93
2022/09/14 06:20:50;;;;;;;3.75;2.90;;;;;;;15.14;58.74;99305.81;4862273;29;20621;-93
2022/09/14 06:29:50;;;;;;;9.85;4.32;;;;;;;15.36;58.10;99280.72;4847185;29;20120;-94
2022/09/14 06:32:44;;;;;;;4.50;2.92;;;;;;;15.78;56.12;99311.34;4860637;29;20033;-93
2022/09/14 06:35:50;;;;;;;6.40;2.60;;;;;;;15.80;57.09;99298.25;4883194;29;20036;-93
2022/09/14 06:38:16;;;;;;;4.38;2.80;;;;;;;16.10;56.77;99306.81;4872826;29;20041;-94
2022/09/14 06:41:48;;;;;;;8.18;2.97;;;;;;;16.25;56.24;99311.94;5059842;23;20058;-96
2022/09/14 06:47:46;;;;;;;5.57;3.97;;;;;;;16.59;54.72;99285.31;4984671;28;20047;-95
2022/09/14 06:50:11;;;;;;;8.70;3.58;;;;;;;16.81;55.23;99301.63;4986685;28;20031;-96
2022/09/14 06:52:40;;;;;;;6.18;3.30;;;;;;;16.88;54.49;99279.41;4955155;28;20025;-93
2022/09/14 06:55:05;;;;;;;9.23;4.45;;;;;;;16.94;54.12;99267.28;4941173;28;20023;-96
2022/09/14 06:57:40;;;;;;;9.73;5.63;;;;;;;17.29;53.85;99302.81;4932948;28;20037;-95
2022/09/14 07:00:35;;;;;;;7.72;3.38;;;;;;;17.35;53.50;99277.84;4930766;29;20058;-96
2022/09/14 07:03:15;;;;;;;5.18;2.90;;;;;;;17.69;52.84;99289.91;4889893;29;20035;-94
2022/09/14 07:12:42;;;;;;;;;;;;;;;;;;;;;
2022/09/14 07:15:27;;;;;;;7.20;4.05;;;;;;;17.99;51.08;99298.31;4938003;29;20050;-95
2022/09/14 07:17:57;;;;;;;4.82;2.88;;;;;;;18.01;50.63;99277.00;4915960;29;20063;-96
2022/09/14 07:20:23;;;;;;;11.98;3.35;;;;;;;18.22;50.61;99279.91;4907834;29;20042;-93
2022/09/14 07:22:51;;;;;;;11.52;6.90;;;;;;;18.53;50.67;99284.34;4910913;29;20024;-96
2022/09/14 07:25:20;;;;;;;13.95;5.88;;;;;;;18.72;49.59;99284.78;4930522;28;20049;-94
2022/09/14 07:27:56;;;;;;;;;;;;;;;;;;;;;
2022/09/14 07:31:00;;;;;;;3.92;3.03;;;;;;;19.11;47.46;99282.09;4955694;28;20101;-95
2022/09/14 07:40:39;;;;;;;8.75;3.67;;;;;;;19.54;46.48;99257.31;4828246;29;20041;-96
2022/09/14 07:43:10;;;;;;;5.13;2.60;;;;;;;19.92;46.12;99278.31;4777147;29;20190;-95
2022/09/14 07:45:36;;;;;;;8.27;3.22;;;;;;;20.05;45.89;99278.38;4816775;29;20056;-93
2022/09/14 07:48:02;;;;;;;6.85;3.20;;;;;;;20.09;44.83;99266.44;4826898;29;20052;-94
2022/09/14 07:50:30;;;;;;;6.55;2.70;;;;;;;20.21;44.51;99253.94;4855849;29;20498;-92
2022/09/14 07:52:59;;;;;;;7.47;3.22;;;;;;;20.55;45.23;99283.69;4892264;29;20495;-95
2022/09/14 07:55:42;;;;;;;14.45;6.10;;;;;;;20.59;44.97;99267.44;4915022;29;20103;-96
2022/09/14 07:58:11;;;;;;;6.53;3.42;;;;;;;20.84;45.71;99283.94;4895495;29;20031;-95
2022/09/14 08:03:56;;;;;;;7.57;3.42;;;;;;;21.04;43.25;99266.59;5078606;23;20057;-96
2022/09/14 08:10:38;;;;;;;;;;;;;;;;;;;;;
2022/09/14 08:31:50;;;;;;;2.03;1.45;;;;;;;21.93;38.32;99240.38;5025214;28;20092;-94
2022/09/14 08:34:24;;;;;;;2.80;1.60;;;;;;;22.09;38.53;99237.72;4997778;28;20074;-96
2022/09/14 08:37:09;;;;;;;7.70;5.25;;;;;;;22.16;40.20;99222.25;4936836;29;20104;-94
2022/09/14 08:40:18;;;;;;;;;;;;;;;;;;;;;
2022/09/14 08:42:48;;;;;;;5.03;1.40;;;;;;;22.42;37.07;99220.22;5148831;23;20054;-96
2022/09/14 08:45:17;;;;;;;1.65;1.33;;;;;;;22.55;36.36;99238.19;5054778;23;20046;-96
2022/09/14 08:58:08;;;;;;;3.75;2.03;;;;;;;22.74;35.64;99188.91;4900506;29;20113;-96
2022/09/14 09:09:31;;;;;;;3.27;2.10;;;;;;;23.43;33.88;99187.75;5010656;28;20132;-94
2022/09/14 09:12:11;;;;;;;1.90;1.20;;;;;;;23.48;33.91;99185.53;4936380;29;20044;-95
2022/09/14 09:14:48;;;;;;;3.93;2.50;;;;;;;23.45;34.51;99174.44;4946204;29;20494;-93
2022/09/14 09:17:53;;;;;;;2.35;1.27;;;;;;;23.69;33.36;99187.13;4894221;29;20148;-92
2022/09/14 09:20:46;;;;;;;4.65;1.98;;;;;;;23.94;33.47;99196.72;4926650;29;20027;-95
2022/09/14 09:24:00;;;;;;;2.70;1.50;;;;;;;23.93;32.92;99195.13;4952789;29;20024;-95
2022/09/14 09:29:10;;;;;;;3.08;0.98;;;;;;;23.76;32.29;99190.03;5163353;23;20077;-95
2022/09/14 09:31:49;;;;;;;2.00;1.30;;;;;;;23.84;33.28;99178.03;4930021;29;20584;-95
2022/09/14 09:44:29;;;;;;;2.00;1.20;;;;;;;24.24;31.77;99201.63;4940086;29;20079;-96
2022/09/14 09:46:58;;;;;;;2.20;1.00;;;;;;;24.11;31.82;99167.16;4923170;29;20036;-90
2022/09/14 09:53:20;;;;;;;1.92;1.05;;;;;;;24.13;31.71;99159.34;4905202;29;20036;-93
2022/09/14 09:55:52;;;;;;;10.48;8.00;;;;;;;24.19;31.03;99166.94;4938541;29;20040;-96
2022/09/14 09:58:50;;;;;;;3.83;2.13;;;;;;;24.38;30.93;99192.81;4922103;29;20231;-95
2022/09/14 10:01:29;;;;;;;2.70;1.48;;;;;;;24.31;31.16;99168.72;4925622;29;20031;-93
2022/09/14 10:04:27;;;;;;;5.88;1.00;;;;;;;24.38;30.97;99181.81;4970580;28;20022;-94
2022/09/14 10:07:05;;;;;;;3.75;2.22;;;;;;;24.31;31.21;99162.44;4927818;28;20031;-95
2022/09/14 10:10:01;;;;;;;3.05;1.80;;;;;;;24.56;31.83;99193.19;4944195;28;20027;-95
2022/09/14 10:12:27;;;;;;;6.95;3.55;;;;;;;24.42;32.95;99157.91;4957324;28;20043;-91
2022/09/14 10:15:24;;;;;;;1.75;1.20;;;;;;;24.55;31.10;99175.06;4959272;28;20031;-93
2022/09/14 10:18:00;;;;;;;2.80;1.23;;;;;;;24.64;29.71;99185.84;4945754;28;20474;-92
2022/09/14 10:20:26;;;;;;;2.30;1.20;;;;;;;24.34;30.66;99153.44;4943963;28;20070;-92
2022/09/14 10:23:16;;;;;;;1.38;0.93;;;;;;;24.45;30.27;99151.69;4949087;28;20515;-91
2022/09/14 10:25:42;;;;;;;1.70;1.10;;;;;;;24.74;30.95;99183.25;4978744;28;20030;-92
2022/09/14 10:28:25;;;;;;;1.45;0.90;;;;;;;24.69;30.50;99167.03;4977790;28;20030;-92
2022/09/14 10:31:40;;;;;;;;;;;;;;;;;;;;;
2022/09/14 10:37:40;;;;;;;;;;;;;;;;;;;;;
2022/09/14 10:40:27;;;;;;;1.75;1.35;;;;;;;24.80;32.93;99154.25;4917227;29;20044;-94
2022/09/14 10:43:13;;;;;;;2.20;1.20;;;;;;;25.06;31.90;99173.91;4933185;29;20032;-94
2022/09/14 10:45:44;;;;;;;1.60;0.90;;;;;;;24.95;30.48;99154.47;4949595;28;20073;-95
2022/09/14 10:52:04;;;;;;;2.00;1.10;;;;;;;25.11;30.49;99162.56;4945619;28;20097;-96
2022/09/14 10:55:43;;;;;;;;;;;;;;;;;;;;;
2022/09/14 10:58:11;;;;;;;1.23;0.90;;;;;;;25.27;30.34;99165.19;4929275;28;20115;-95
2022/09/14 11:01:28;;;;;;;;;;;;;;;;;;;;;
2022/09/14 11:04:55;;;;;;;1.00;0.90;;;;;;;25.02;30.18;99127.81;4973068;28;20045;-94
2022/09/14 11:07:37;;;;;;;1.45;1.00;;;;;;;25.11;30.31;99144.09;4922516;29;20038;-94
2022/09/14 11:10:40;;;;;;;;;;;;;;;;;;;;;
2022/09/14 11:13:53;;;;;;;1.70;1.10;;;;;;;25.28;29.92;99122.69;4977293;28;20086;-96
2022/09/14 11:16:54;;;;;;;1.95;1.45;;;;;;;25.45;30.30;99146.94;5082040;23;20046;-96
2022/09/14 11:20:00;;;;;;;3.33;2.05;;;;;;;25.48;30.30;99126.88;5018057;28;20046;-94
2022/09/14 11:23:06;;;;;;;4.68;2.30;;;;;;;25.62;31.04;99142.81;4986413;28;20029;-95
2022/09/14 11:38:59;;;;;;;1.42;0.90;;;;;;;25.92;29.11;99120.72;5025187;28;20046;-96
2022/09/14 11:57:53;;;;;;;5.05;1.92;;;;;;;26.03;30.13;99070.38;4999723;28;20046;-94
2022/09/14 12:00:26;;;;;;;2.47;1.00;;;;;;;26.15;29.25;99084.69;4966966;28;20026;-92
2022/09/14 12:03:13;;;;;;;2.17;1.40;;;;;;;26.33;29.67;99081.28;4994152;28;20022;-93
2022/09/14 12:05:43;;;;;;;2.92;1.23;;;;;;;26.30;29.99;99059.97;4998763;28;20097;-96
2022/09/14 12:08:31;;;;;;;1.17;0.98;;;;;;;26.46;29.39;99070.72;4980490;28;20038;-94
2022/09/14 12:11:11;;;;;;;1.10;0.90;;;;;;;26.51;28.31;99068.41;4995584;28;20469;-95
2022/09/14 12:13:56;;;;;;;2.88;1.23;;;;;;;26.51;28.67;99054.59;4998255;28;20463;-96
2022/09/14 12:16:22;;;;;;;3.35;1.70;;;;;;;26.48;28.76;99049.03;4969786;28;20030;-95
2022/09/14 12:23:00;;;;;;;;;;;;;;;;;;;;;
2022/09/14 12:31:55;;;;;;;2.67;1.87;;;;;;;26.54;28.44;99056.59;4982687;28;20049;-95
2022/09/14 12:34:30;;;;;;;2.17;0.95;;;;;;;26.44;28.61;99046.28;4973898;28;20051;-95
2022/09/14 12:43:02;;;;;;;;;;;;;;;;;;;;;
2022/09/14 12:46:01;;;;;;;2.08;1.23;;;;;;;26.32;28.94;99016.22;4991767;28;20074;-96
2022/09/14 13:03:55;;;;;;;6.38;2.08;;;;;;;26.54;27.42;99015.19;5021566;28;20040;-96
2022/09/14 13:06:51;;;;;;;1.17;0.98;;;;;;;26.56;27.56;99001.78;4989805;28;20034;-95
2022/09/14 13:12:32;;;;;;;2.43;1.33;;;;;;;26.77;26.85;99042.56;5059471;23;20066;-96
2022/09/14 13:15:41;;;;;;;2.00;1.25;;;;;;;26.65;26.55;99020.03;5006101;28;20042;-96
2022/09/14 13:18:26;;;;;;;5.47;1.38;;;;;;;26.84;25.92;99041.81;5023356;28;20129;-95
2022/09/14 13:21:01;;;;;;;3.75;1.50;;;;;;;26.84;26.17;99035.50;5010907;28;20117;-96
2022/09/14 13:23:32;;;;;;;2.65;0.95;;;;;;;27.02;25.19;99050.22;5027476;28;20097;-95
2022/09/14 13:25:58;;;;;;;1.60;0.80;;;;;;;26.91;25.23;99044.59;5001537;28;20030;-94
2022/09/14 13:28:34;;;;;;;1.52;1.00;;;;;;;26.83;25.94;99026.41;5011267;28;20021;-96
2022/09/14 13:31:25;;;;;;;2.15;1.20;;;;;;;26.89;26.19;99024.06;4996805;28;20077;-95
2022/09/14 13:34:22;;;;;;;1.75;1.40;;;;;;;27.10;26.13;99051.03;5003541;28;20030;-96
2022/09/14 13:37:09;;;;;;;3.17;1.30;;;;;;;27.07;26.25;99047.06;5021789;28;20129;-92
2022/09/14 13:39:56;;;;;;;1.02;0.77;;;;;;;27.12;24.31;99056.94;5009119;28;20048;-96
2022/09/14 13:42:33;;;;;;;1.58;1.15;;;;;;;27.05;25.01;99032.06;5000300;28;20025;-93
2022/09/14 13:44:59;;;;;;;2.30;1.40;;;;;;;27.09;25.41;99033.66;4990474;28;20025;-94
2022/09/14 13:47:24;;;;;;;1.00;0.65;;;;;;;27.13;24.72;99017.09;5005520;28;20030;-94
2022/09/14 13:49:59;;;;;;;1.42;0.95;;;;;;;27.28;24.51;99042.84;4990309;28;20029;-95
2022/09/14 13:52:27;;;;;;;1.15;0.95;;;;;;;27.37;24.84;99049.59;4987078;28;20037;-94
2022/09/14 13:54:55;;;;;;;6.30;1.50;;;;;;;27.27;25.92;99022.72;5024893;28;20030;-96
2022/09/14 14:00:26;;;;;;;4.65;1.05;;;;;;;27.18;25.57;99003.66;5038533;23;20050;-95
2022/09/14 14:03:03;;;;;;;1.77;0.90;;;;;;;27.28;25.08;99012.44;4992933;28;20040;-96
2022/09/14 14:05:34;;;;;;;1.73;1.40;;;;;;;27.38;26.07;99028.25;5016732;28;20524;-95
2022/09/14 14:08:25;;;;;;;2.85;1.75;;;;;;;27.41;25.49;99014.47;4994577;28;20076;-96
2022/09/14 14:10:52;;;;;;;1.90;1.05;;;;;;;27.53;24.83;99009.72;5006484;28;20124;-93
2022/09/14 14:13:38;;;;;;;2.05;1.08;;;;;;;27.74;24.41;99020.81;4984331;28;20089;-95
2022/09/14 14:16:23;;;;;;;4.95;1.40;;;;;;;27.88;24.73;99027.59;4984580;28;20041;-96
2022/09/14 14:19:29;;;;;;;6.60;1.80;;;;;;;27.77;25.39;99010.97;4989103;28;20037;-94
2022/09/14 14:25:18;;;;;;;5.65;1.65;;;;;;;28.05;24.47;99026.03;5018446;28;20048;-95
2022/09/14 14:28:22;;;;;;;1.83;1.30;;;;;;;28.26;23.63;99050.16;4982385;28;20113;-92
2022/09/14 14:30:48;;;;;;;1.52;0.80;;;;;;;28.18;24.12;99039.09;4982619;28;20096;-95
2022/09/14 14:33:21;;;;;;;1.50;0.80;;;;;;;28.12;23.46;99046.22;4990542;28;20025;-95
2022/09/14 14:39:12;;;;;;;1.85;1.00;;;;;;;27.74;24.55;99031.09;5021373;28;20040;-96
2022/09/14 14:41:41;;;;;;;1.80;1.48;;;;;;;27.84;24.77;99046.94;5021472;28;20110;-95
2022/09/14 14:44:38;;;;;;;2.25;1.20;;;;;;;27.86;24.98;99041.81;5011909;28;20022;-95
2022/09/14 14:47:05;;;;;;;6.88;1.48;;;;;;;27.66;25.22;99026.75;4998178;28;20042;-93
2022/09/14 14:49:32;;;;;;;4.38;1.60;;;;;;;27.64;25.87;99043.72;4999084;28;20047;-95
2022/09/14 14:51:57;;;;;;;2.42;1.10;;;;;;;27.51;25.92;99037.78;4983641;28;20042;-94
2022/09/14 14:54:23;;;;;;;3.90;1.35;;;;;;;27.41;26.63;99022.75;4984221;28;20103;-94
2022/09/14 14:56:51;;;;;;;3.30;1.30;;;;;;;27.46;26.54;99032.63;4980666;28;20034;-94
2022/09/14 14:59:20;;;;;;;2.95;1.83;;;;;;;27.32;26.71;99027.84;4982814;28;20064;-95
2022/09/14 15:01:49;;;;;;;1.83;1.00;;;;;;;27.21;26.95;99021.47;4997907;28;20380;-94
2022/09/14 15:04:15;;;;;;;2.72;1.20;;;;;;;27.03;26.98;99013.09;4985337;28;20033;-95
2022/09/14 15:06:53;;;;;;;4.38;1.60;;;;;;;26.91;28.20;99016.19;4978004;28;20042;-96
2022/09/14 15:09:41;;;;;;;7.18;1.63;;;;;;;26.76;28.82;99007.03;5488677;23;20937;-96
2022/09/14 15:12:08;;;;;;;2.10;1.17;;;;;;;26.85;27.97;99031.56;4989926;28;20039;-96
2022/09/14 15:14:33;;;;;;;1.98;0.98;;;;;;;26.56;28.13;99009.25;4937157;28;20536;-95
2022/09/14 15:16:59;;;;;;;1.95;1.00;;;;;;;26.56;27.79;99023.88;4932472;28;20035;-95
2022/09/14 15:19:25;;;;;;;3.65;1.85;;;;;;;26.50;28.14;99011.63;4934834;28;20061;-95
2022/09/14 15:25:19;;;;;;;;;;;;;;;26.39;28.71;99021.78;4986507;28;20073;-96
2022/09/14 15:27:44;;;;;;;2.83;1.50;;;;;;;26.15;29.29;98990.06;4975017;28;19925;-96
2022/09/14 15:30:17;;;;;;;2.17;1.40;;;;;;;26.07;29.38;98982.91;4957510;28;20023;-95